Time;durP1;ratioP1;P1;durP2;ratioP2;P2;SDS_P1;SDS_P2;PMS_P1;PMS_P2;Temp;Humidity;BMP_temperature;BMP_pressure;BME280_temperature;BME280_humidity;BME280_pressure;Samples;Min_cycle;Max_cycle;Signal;HPM_P1;HPM_P2
2022/12/21 00:01:23;;;;;;;0.70;0.52;;;4.60;99.90;;;;;;5039927;28;20055;-78
2022/12/21 00:03:56;;;;;;;2.38;0.90;;;4.60;99.90;;;;;;5053717;28;20191;-77
2022/12/21 00:06:24;;;;;;;1.42;0.60;;;4.70;99.90;;;;;;5053416;28;20060;-77
2022/12/21 00:08:52;;;;;;;0.50;0.50;;;4.80;99.90;;;;;;5053880;28;20401;-77
2022/12/21 00:11:24;;;;;;;1.10;0.50;;;4.90;99.90;;;;;;5049415;28;20539;-77
2022/12/21 00:13:51;;;;;;;0.73;0.50;;;5.00;99.90;;;;;;5051717;28;20507;-77
2022/12/21 00:16:20;;;;;;;1.85;0.50;;;5.10;99.90;;;;;;5053024;28;20049;-77
2022/12/21 00:18:46;;;;;;;1.13;0.57;;;5.20;99.90;;;;;;5055480;28;20048;-77
2022/12/21 00:21:21;;;;;;;1.50;0.60;;;5.30;99.90;;;;;;5041025;28;20143;-77
2022/12/21 00:23:48;;;;;;;1.70;0.70;;;5.40;99.90;;;;;;5052352;28;20045;-77
2022/12/21 00:26:17;;;;;;;0.93;0.50;;;5.50;99.90;;;;;;5036628;28;20037;-77
2022/12/21 00:28:44;;;;;;;0.82;0.57;;;5.60;99.90;;;;;;5048326;28;20041;-77
2022/12/21 00:31:13;;;;;;;0.75;0.40;;;5.60;99.90;;;;;;5055608;28;20064;-77
2022/12/21 00:33:40;;;;;;;1.55;0.95;;;5.70;99.90;;;;;;5032225;28;20463;-77
2022/12/21 00:36:09;;;;;;;1.80;0.50;;;5.70;99.90;;;;;;5052755;28;20052;-77
2022/12/21 00:38:36;;;;;;;0.77;0.47;;;5.80;99.90;;;;;;5036660;28;20073;-77
2022/12/21 00:41:05;;;;;;;1.23;0.60;;;5.80;99.90;;;;;;5051864;28;20484;-77
2022/12/21 00:43:33;;;;;;;3.53;1.33;;;5.90;99.90;;;;;;5047457;28;20844;-76
2022/12/21 00:46:00;;;;;;;1.30;0.60;;;6.00;99.90;;;;;;5044939;28;20147;-77
2022/12/21 00:48:27;;;;;;;1.15;0.50;;;6.10;99.90;;;;;;5055271;28;20924;-77
2022/12/21 00:51:06;;;;;;;1.48;0.65;;;6.20;99.90;;;;;;5041367;28;20052;-77
2022/12/21 00:53:33;;;;;;;1.38;0.57;;;6.20;99.90;;;;;;5059467;28;20052;-77
2022/12/21 00:56:00;;;;;;;1.98;0.68;;;6.30;99.90;;;;;;5059438;28;20059;-77
2022/12/21 00:58:28;;;;;;;2.58;0.70;;;6.40;99.90;;;;;;5042511;28;20048;-77
2022/12/21 01:00:55;;;;;;;1.23;0.47;;;6.40;99.90;;;;;;5059795;28;20059;-77
2022/12/21 01:03:22;;;;;;;0.90;0.70;;;6.40;99.90;;;;;;5059987;28;20053;-77
2022/12/21 01:05:50;;;;;;;0.93;0.77;;;6.40;99.90;;;;;;5039884;28;20527;-76
2022/12/21 01:08:17;;;;;;;0.75;0.60;;;6.40;99.90;;;;;;5024137;28;20485;-77
2022/12/21 01:10:44;;;;;;;1.33;0.65;;;6.40;99.90;;;;;;5059313;28;20059;-77
2022/12/21 01:13:11;;;;;;;2.45;1.25;;;6.40;99.90;;;;;;5015323;28;20781;-77
2022/12/21 01:15:41;;;;;;;1.05;0.43;;;6.40;99.90;;;;;;5058667;28;20044;-77
2022/12/21 01:18:09;;;;;;;0.82;0.52;;;6.40;99.90;;;;;;5059855;28;20590;-77
2022/12/21 01:20:46;;;;;;;0.68;0.50;;;6.40;99.90;;;;;;5060216;28;20049;-77
2022/12/21 01:23:13;;;;;;;1.27;0.68;;;6.50;99.90;;;;;;5059884;28;20048;-76
2022/12/21 01:25:42;;;;;;;0.98;0.40;;;6.50;99.90;;;;;;5026722;28;20433;-77
2022/12/21 01:28:08;;;;;;;0.73;0.50;;;6.60;99.90;;;;;;5043334;28;20052;-77
2022/12/21 01:30:35;;;;;;;1.08;0.50;;;6.60;99.90;;;;;;5059972;28;20048;-76
2022/12/21 01:33:02;;;;;;;0.98;0.57;;;6.60;99.90;;;;;;5060612;28;20048;-77
2022/12/21 01:35:29;;;;;;;1.80;0.60;;;6.60;99.90;;;;;;5060039;28;20064;-77
2022/12/21 01:37:56;;;;;;;0.98;0.57;;;6.60;99.90;;;;;;5059318;28;20464;-77
2022/12/21 01:40:23;;;;;;;0.45;0.38;;;6.60;99.90;;;;;;5040239;28;20481;-77
2022/12/21 01:42:50;;;;;;;1.42;0.43;;;6.60;99.90;;;;;;5056733;28;20045;-77
2022/12/21 01:45:26;;;;;;;0.47;0.40;;;6.60;99.90;;;;;;5059564;28;20052;-77
2022/12/21 01:47:56;;;;;;;1.50;0.65;;;6.60;99.90;;;;;;5042956;28;20051;-77
2022/12/21 01:50:38;;;;;;;1.35;0.93;;;6.60;99.90;;;;;;5061053;28;20055;-77
2022/12/21 01:53:28;;;;;;;1.27;0.50;;;6.60;99.90;;;;;;5059207;28;20049;-77
2022/12/21 01:55:56;;;;;;;1.17;0.50;;;6.60;99.90;;;;;;5029278;28;20052;-77
2022/12/21 01:58:23;;;;;;;0.75;0.50;;;6.60;99.90;;;;;;5044388;28;20086;-77
2022/12/21 02:00:50;;;;;;;1.33;0.75;;;6.60;99.90;;;;;;5030182;28;20060;-76
2022/12/21 02:03:19;;;;;;;2.70;0.85;;;6.70;99.90;;;;;;5062516;28;20055;-77
2022/12/21 02:05:56;;;;;;;0.50;0.40;;;6.70;99.90;;;;;;5046736;28;20120;-77
2022/12/21 02:08:23;;;;;;;0.90;0.50;;;6.80;99.90;;;;;;5063457;28;20052;-77
2022/12/21 02:10:51;;;;;;;0.68;0.50;;;6.80;99.90;;;;;;5043413;28;20057;-76
2022/12/21 02:13:17;;;;;;;1.85;0.68;;;6.90;99.90;;;;;;5062911;28;20144;-77
2022/12/21 02:15:52;;;;;;;1.20;0.60;;;6.90;99.90;;;;;;5063421;28;20834;-77
2022/12/21 02:18:47;;;;;;;1.35;0.60;;;6.90;99.90;;;;;;5046518;28;20052;-77
2022/12/21 02:21:27;;;;;;;1.00;0.43;;;7.00;99.90;;;;;;5047471;28;20044;-77
2022/12/21 02:24:08;;;;;;;0.95;0.68;;;7.00;99.90;;;;;;5047523;28;20060;-77
2022/12/21 02:27:09;;;;;;;1.55;0.70;;;7.10;99.90;;;;;;5064109;28;20053;-77
2022/12/21 02:30:04;;;;;;;0.90;0.40;;;7.10;99.90;;;;;;5042229;28;20146;-76
2022/12/21 02:32:47;;;;;;;1.88;0.68;;;7.20;99.90;;;;;;5064879;28;20116;-76
2022/12/21 02:35:31;;;;;;;1.65;0.85;;;7.30;99.90;;;;;;5029596;28;20145;-77
2022/12/21 02:38:07;;;;;;;1.50;0.70;;;7.40;99.90;;;;;;5061208;28;20048;-77
2022/12/21 02:40:40;;;;;;;1.80;0.52;;;7.40;99.90;;;;;;5065362;28;20054;-77
2022/12/21 02:46:20;;;;;;;2.97;0.40;;;7.50;99.90;;;;;;5064343;28;19951;-77
2022/12/21 02:48:59;;;;;;;1.00;0.55;;;7.40;99.90;;;;;;5063294;28;20048;-77
2022/12/21 02:51:30;;;;;;;1.67;0.50;;;7.50;99.90;;;;;;5064771;28;20040;-76
2022/12/21 02:53:57;;;;;;;0.95;0.50;;;7.40;99.90;;;;;;5047560;28;20484;-78
2022/12/21 02:56:24;;;;;;;3.50;0.88;;;7.50;99.90;;;;;;5063878;28;20120;-76
2022/12/21 02:58:51;;;;;;;2.40;0.70;;;7.50;99.90;;;;;;5046780;28;20066;-76
2022/12/21 03:01:27;;;;;;;1.63;0.80;;;7.50;99.90;;;;;;5047320;28;20040;-76
2022/12/21 03:04:35;;;;;;;1.35;0.70;;;7.50;99.90;;;;;;5063197;28;20127;-77
2022/12/21 03:07:31;;;;;;;1.88;0.68;;;7.50;99.90;;;;;;5063294;28;20052;-76
2022/12/21 03:10:05;;;;;;;0.60;0.35;;;7.50;99.90;;;;;;5062631;28;20496;-76
2022/12/21 03:12:58;;;;;;;0.68;0.40;;;7.50;99.90;;;;;;5063253;28;20056;-75
2022/12/21 03:15:28;;;;;;;2.13;0.57;;;7.50;99.90;;;;;;5042932;28;20499;-76
2022/12/21 03:18:01;;;;;;;1.08;0.50;;;7.40;99.90;;;;;;5064897;28;20053;-76
2022/12/21 03:21:02;;;;;;;2.55;0.50;;;7.40;99.90;;;;;;5063604;28;20057;-76
2022/12/21 03:23:52;;;;;;;0.55;0.38;;;7.40;99.90;;;;;;5055186;28;20148;-76
2022/12/21 03:26:20;;;;;;;1.08;0.55;;;7.40;99.90;;;;;;5058670;28;20052;-76
2022/12/21 03:28:48;;;;;;;1.02;0.50;;;7.50;99.90;;;;;;5062681;28;20048;-77
2022/12/21 03:31:17;;;;;;;1.25;0.50;;;7.50;99.90;;;;;;5063116;28;20059;-77
2022/12/21 03:33:47;;;;;;;1.50;0.55;;;7.50;99.90;;;;;;5046993;28;20140;-76
2022/12/21 03:36:20;;;;;;;1.50;0.77;;;7.50;99.90;;;;;;5026931;28;20044;-76
2022/12/21 03:38:53;;;;;;;1.83;0.70;;;7.40;99.90;;;;;;5046697;28;20048;-76
2022/12/21 03:41:28;;;;;;;0.95;0.60;;;7.40;99.90;;;;;;5046457;28;20547;-76
2022/12/21 03:43:55;;;;;;;1.70;0.65;;;7.30;99.90;;;;;;5043136;28;20132;-76
2022/12/21 03:46:27;;;;;;;0.50;0.47;;;7.30;99.90;;;;;;5035892;28;20067;-76
2022/12/21 03:48:57;;;;;;;1.92;0.85;;;7.30;99.90;;;;;;5057560;28;20156;-76
2022/12/21 03:51:23;;;;;;;1.83;0.65;;;7.30;99.90;;;;;;5044909;28;20045;-77
2022/12/21 03:54:03;;;;;;;0.68;0.45;;;7.30;99.90;;;;;;5060700;28;20060;-76
2022/12/21 03:56:32;;;;;;;1.48;0.70;;;7.40;99.90;;;;;;5048382;28;20570;-76
2022/12/21 03:58:59;;;;;;;1.65;0.70;;;7.40;99.90;;;;;;5064309;28;20044;-76
2022/12/21 04:01:49;;;;;;;1.67;0.63;;;7.40;99.90;;;;;;5044489;28;20045;-77
2022/12/21 04:04:31;;;;;;;1.60;0.82;;;7.50;99.90;;;;;;5062039;28;20059;-76
2022/12/21 04:06:59;;;;;;;1.00;0.60;;;7.50;99.90;;;;;;5029516;28;20350;-76
2022/12/21 04:09:25;;;;;;;1.10;0.32;;;7.50;99.90;;;;;;5044618;28;20080;-77
2022/12/21 04:14:41;;;;;;;0.93;0.40;;;7.50;99.90;;;;;;5040215;28;20052;-76
2022/12/21 04:17:08;;;;;;;0.80;0.60;;;7.50;99.90;;;;;;5064246;28;20128;-76
2022/12/21 04:28:09;;;;;;;0.93;0.50;;;7.50;99.90;;;;;;5045543;28;20049;-76
2022/12/21 04:30:56;;;;;;;0.52;0.40;;;7.40;99.90;;;;;;5044170;28;20052;-76
2022/12/21 04:33:24;;;;;;;1.17;0.40;;;7.40;99.90;;;;;;5054359;28;20048;-77
2022/12/21 04:38:38;;;;;;;0.40;0.40;;;7.40;99.90;;;;;;5064464;28;20048;-76
2022/12/21 04:41:05;;;;;;;1.08;0.65;;;7.50;99.90;;;;;;5065449;28;20234;-76
2022/12/21 04:43:35;;;;;;;0.43;0.30;;;7.50;99.90;;;;;;5064837;28;20045;-76
2022/12/21 04:46:07;;;;;;;0.32;0.30;;;7.50;99.90;;;;;;5027576;28;20124;-76
2022/12/21 04:48:34;;;;;;;1.58;0.60;;;7.50;99.90;;;;;;5061633;28;20048;-77
2022/12/21 04:51:20;;;;;;;0.85;0.40;;;7.50;99.90;;;;;;5072905;28;20067;-76
2022/12/21 04:53:47;;;;;;;0.47;0.40;;;7.50;99.90;;;;;;5047174;28;20097;-76
2022/12/21 04:56:14;;;;;;;1.15;0.50;;;7.40;99.90;;;;;;5063604;28;20048;-76
2022/12/21 04:58:41;;;;;;;1.13;0.50;;;7.40;99.90;;;;;;5047273;28;20064;-76
2022/12/21 05:01:12;;;;;;;0.77;0.50;;;7.40;99.90;;;;;;5047393;28;20616;-76
2022/12/21 05:03:39;;;;;;;1.63;0.45;;;7.40;99.90;;;;;;5063409;28;20048;-76
2022/12/21 05:06:07;;;;;;;2.10;0.45;;;7.40;99.90;;;;;;5063665;28;20571;-77
2022/12/21 05:08:34;;;;;;;0.90;0.50;;;7.30;99.90;;;;;;5063647;28;20500;-79
2022/12/21 05:11:17;;;;;;;1.50;0.65;;;7.30;99.90;;;;;;5064058;28;20048;-76
2022/12/21 05:13:44;;;;;;;;;;;7.30;99.90;;;;;;5063221;28;20048;-76
2022/12/21 05:16:14;;;;;;;0.45;0.22;;;7.30;99.90;;;;;;5046877;28;19931;-76
2022/12/21 05:18:41;;;;;;;0.60;0.50;;;7.20;99.90;;;;;;5063512;28;20666;-76
2022/12/21 05:21:08;;;;;;;0.57;0.30;;;7.20;99.90;;;;;;5064499;28;20798;-76
2022/12/21 05:23:34;;;;;;;1.02;0.40;;;7.20;99.90;;;;;;5064069;28;20113;-76
2022/12/21 05:26:02;;;;;;;0.98;0.40;;;7.10;99.90;;;;;;5063792;28;20044;-76
2022/12/21 05:28:40;;;;;;;0.30;0.30;;;7.20;99.90;;;;;;5063328;28;20059;-76
2022/12/21 05:31:06;;;;;;;0.65;0.40;;;7.20;99.90;;;;;;5046932;28;20044;-77
2022/12/21 05:33:33;;;;;;;0.30;0.30;;;7.20;99.90;;;;;;5032308;28;20045;-77
2022/12/21 05:36:02;;;;;;;0.88;0.50;;;7.20;99.90;;;;;;5067649;28;20399;-76
2022/12/21 05:38:29;;;;;;;1.42;0.70;;;7.20;99.90;;;;;;5051578;28;20044;-76
2022/12/21 05:40:56;;;;;;;0.70;0.38;;;7.20;99.90;;;;;;5067270;28;20108;-76
2022/12/21 05:43:23;;;;;;;0.52;0.38;;;7.20;99.90;;;;;;5066708;28;20457;-76
2022/12/21 05:45:49;;;;;;;0.30;0.30;;;7.10;99.90;;;;;;5050701;28;20148;-76
2022/12/21 05:48:16;;;;;;;1.02;0.40;;;7.10;99.90;;;;;;5064185;28;20088;-76
2022/12/21 05:50:43;;;;;;;0.70;0.57;;;7.10;99.90;;;;;;5065658;28;20080;-77
2022/12/21 05:53:10;;;;;;;1.13;0.50;;;7.00;99.90;;;;;;5048597;28;20110;-76
2022/12/21 05:55:43;;;;;;;0.98;0.70;;;7.00;99.90;;;;;;5032868;28;20056;-76
2022/12/21 05:58:11;;;;;;;0.40;0.40;;;7.00;99.90;;;;;;5066046;28;20052;-76
2022/12/21 06:00:38;;;;;;;0.50;0.50;;;7.00;99.90;;;;;;5048655;28;20149;-76
2022/12/21 06:03:04;;;;;;;0.68;0.40;;;7.00;99.90;;;;;;5046392;28;20076;-76
2022/12/21 06:05:34;;;;;;;0.40;0.40;;;6.90;99.90;;;;;;5064290;28;20060;-76
2022/12/21 06:08:01;;;;;;;1.23;0.40;;;6.90;99.90;;;;;;5062962;28;20089;-76
2022/12/21 06:10:27;;;;;;;1.48;0.60;;;6.90;99.90;;;;;;5046485;28;20099;-76
2022/12/21 06:12:54;;;;;;;1.50;0.60;;;6.90;99.90;;;;;;5061922;28;20742;-76
2022/12/21 06:15:21;;;;;;;0.60;0.40;;;6.90;99.90;;;;;;5062798;28;20048;-76
2022/12/21 06:17:48;;;;;;;0.35;0.35;;;6.90;99.90;;;;;;5046463;28;20084;-76
2022/12/21 06:20:17;;;;;;;0.40;0.40;;;7.00;99.90;;;;;;5046561;28;20114;-76
2022/12/21 06:22:44;;;;;;;1.02;0.50;;;7.00;99.90;;;;;;5062621;28;20037;-76
2022/12/21 06:25:11;;;;;;;0.82;0.40;;;7.10;99.90;;;;;;5046223;28;20068;-76
2022/12/21 06:27:38;;;;;;;0.28;0.25;;;7.10;99.90;;;;;;5062527;28;20138;-76
2022/12/21 06:30:05;;;;;;;1.48;0.55;;;7.10;99.90;;;;;;5046078;28;20084;-76
2022/12/21 06:32:32;;;;;;;0.95;0.43;;;7.10;99.90;;;;;;5042701;28;20060;-76
2022/12/21 06:34:59;;;;;;;0.90;0.50;;;7.20;99.90;;;;;;5063194;28;20499;-76
2022/12/21 06:37:25;;;;;;;0.98;0.43;;;7.20;99.90;;;;;;5063942;28;20454;-76
2022/12/21 06:39:52;;;;;;;3.55;0.70;;;7.30;99.90;;;;;;5063564;28;20110;-77
2022/12/21 06:42:19;;;;;;;3.08;0.45;;;7.40;99.90;;;;;;5046416;28;20075;-81
2022/12/21 06:44:46;;;;;;;0.98;0.40;;;7.40;99.90;;;;;;5062508;28;20072;-79
2022/12/21 06:47:13;;;;;;;2.13;0.73;;;7.50;99.90;;;;;;5062932;28;20055;-79
2022/12/21 06:49:39;;;;;;;1.48;0.57;;;7.50;99.90;;;;;;5061687;28;20435;-80
2022/12/21 06:52:06;;;;;;;1.75;0.63;;;7.50;99.90;;;;;;5045135;28;20047;-79
2022/12/21 06:54:33;;;;;;;3.60;0.80;;;7.60;99.90;;;;;;5044330;28;20092;-79
2022/12/21 06:57:00;;;;;;;1.73;0.68;;;7.60;99.90;;;;;;5056425;28;20044;-80
2022/12/21 06:59:27;;;;;;;1.15;0.65;;;7.70;99.90;;;;;;5039185;28;20048;-80
2022/12/21 07:01:53;;;;;;;1.63;0.68;;;7.70;99.90;;;;;;5069676;28;20040;-79
2022/12/21 07:04:21;;;;;;;2.42;0.75;;;7.70;99.90;;;;;;5056667;28;20045;-80
2022/12/21 07:06:48;;;;;;;2.65;0.90;;;7.80;99.90;;;;;;5038823;28;20484;-79
2022/12/21 07:09:15;;;;;;;2.03;0.90;;;7.80;99.90;;;;;;5034201;28;20044;-79
2022/12/21 07:11:42;;;;;;;2.28;0.70;;;7.80;99.90;;;;;;5041861;28;20377;-81
2022/12/21 07:14:09;;;;;;;4.65;0.80;;;7.90;99.90;;;;;;5061276;28;20051;-79
2022/12/21 07:16:36;;;;;;;1.25;0.60;;;8.00;99.90;;;;;;5042781;28;20044;-78
2022/12/21 07:19:03;;;;;;;1.00;0.60;;;8.00;99.90;;;;;;5043970;28;20056;-78
2022/12/21 07:21:30;;;;;;;1.58;1.10;;;8.10;99.90;;;;;;5063870;28;20053;-80
2022/12/21 07:23:57;;;;;;;1.55;0.60;;;8.10;99.90;;;;;;5061967;28;20044;-80
2022/12/21 07:26:24;;;;;;;0.70;0.50;;;8.20;99.90;;;;;;5040804;28;20514;-80
2022/12/21 07:28:51;;;;;;;1.45;0.80;;;8.20;99.90;;;;;;5046743;28;20045;-80
2022/12/21 07:31:19;;;;;;;0.98;0.50;;;8.20;99.90;;;;;;5040552;28;20045;-80
2022/12/21 07:33:46;;;;;;;2.22;0.70;;;8.30;99.90;;;;;;5039021;28;20126;-79
2022/12/21 07:36:13;;;;;;;0.75;0.50;;;8.30;99.90;;;;;;5055037;28;20171;-82
2022/12/21 07:38:40;;;;;;;1.27;0.70;;;8.20;99.90;;;;;;5040453;28;20052;-80
2022/12/21 07:41:12;;;;;;;2.67;0.80;;;8.20;99.90;;;;;;5058366;28;20075;-80
2022/12/21 07:43:39;;;;;;;2.63;0.90;;;8.20;99.90;;;;;;5047227;28;20947;-80
2022/12/21 07:46:06;;;;;;;2.13;0.73;;;8.20;99.90;;;;;;5056227;28;20051;-80
2022/12/21 07:48:34;;;;;;;1.55;0.60;;;8.20;99.90;;;;;;5053717;28;20131;-78
2022/12/21 07:51:01;;;;;;;0.88;0.40;;;8.20;99.90;;;;;;5059790;28;20056;-80
2022/12/21 07:53:28;;;;;;;2.00;0.70;;;8.30;99.90;;;;;;5061370;28;20164;-78
2022/12/21 07:56:02;;;;;;;2.10;0.85;;;8.30;99.90;;;;;;5065738;28;20055;-79
2022/12/21 07:58:29;;;;;;;2.38;0.85;;;8.40;99.90;;;;;;5039312;28;20048;-79
2022/12/21 08:01:04;;;;;;;1.48;0.90;;;8.40;99.90;;;;;;5041181;28;20071;-80
2022/12/21 08:03:32;;;;;;;1.30;0.60;;;8.40;99.90;;;;;;5056953;28;20075;-79
2022/12/21 08:05:59;;;;;;;1.63;0.68;;;8.40;99.90;;;;;;5055973;28;20511;-79
2022/12/21 08:08:26;;;;;;;2.50;0.95;;;8.50;99.90;;;;;;5036915;28;20045;-79
2022/12/21 08:10:52;;;;;;;2.67;1.00;;;8.60;99.90;;;;;;5049969;28;20128;-82
2022/12/21 08:13:19;;;;;;;2.95;1.23;;;8.60;99.90;;;;;;5018046;28;20400;-79
2022/12/21 08:15:46;;;;;;;1.25;0.47;;;8.70;99.90;;;;;;5053117;28;20390;-79
2022/12/21 08:18:13;;;;;;;1.73;0.70;;;8.70;99.90;;;;;;5037676;28;20102;-81
2022/12/21 08:20:43;;;;;;;1.58;0.80;;;8.70;99.90;;;;;;5041045;28;20087;-81
2022/12/21 08:23:10;;;;;;;2.35;0.90;;;8.70;99.90;;;;;;5052063;28;20518;-83
2022/12/21 08:25:42;;;;;;;1.27;0.70;;;8.70;99.90;;;;;;5022692;28;20060;-80
2022/12/21 08:28:09;;;;;;;1.65;0.85;;;8.80;99.90;;;;;;5032406;28;20504;-80
2022/12/21 08:30:36;;;;;;;2.30;0.65;;;8.80;99.90;;;;;;5036891;28;20396;-85
2022/12/21 08:33:03;;;;;;;2.33;0.90;;;8.80;99.90;;;;;;5040031;28;20044;-79
2022/12/21 08:35:30;;;;;;;2.55;0.90;;;8.90;99.90;;;;;;5057921;28;20143;-79
2022/12/21 08:37:57;;;;;;;4.45;1.20;;;8.90;99.90;;;;;;5058679;28;20465;-76
2022/12/21 08:40:23;;;;;;;2.00;0.88;;;9.00;99.90;;;;;;5039082;28;20084;-76
2022/12/21 08:42:50;;;;;;;3.10;1.50;;;9.00;99.90;;;;;;5057448;28;20048;-77
2022/12/21 08:45:17;;;;;;;2.33;0.90;;;9.00;99.90;;;;;;5056328;28;20136;-78
2022/12/21 08:47:44;;;;;;;2.53;0.75;;;9.00;99.90;;;;;;5039378;28;20131;-77
2022/12/21 08:50:11;;;;;;;1.25;0.75;;;9.00;99.90;;;;;;5058620;28;20479;-77
2022/12/21 08:52:37;;;;;;;3.30;1.65;;;9.10;99.90;;;;;;5039904;28;20557;-76
2022/12/21 08:55:04;;;;;;;4.07;1.05;;;9.10;99.90;;;;;;5036451;28;20199;-76
2022/12/21 08:57:32;;;;;;;1.38;0.75;;;9.10;99.90;;;;;;5020569;28;20140;-76
2022/12/21 08:59:59;;;;;;;1.58;0.70;;;9.10;99.90;;;;;;5050311;28;20508;-77
2022/12/21 09:02:26;;;;;;;0.43;0.40;;;9.20;99.90;;;;;;5056141;28;20539;-77
2022/12/21 09:04:53;;;;;;;0.60;0.40;;;9.20;99.90;;;;;;5039697;28;20575;-77
2022/12/21 09:07:19;;;;;;;1.17;0.52;;;9.20;99.90;;;;;;5060236;28;20055;-77
2022/12/21 09:09:46;;;;;;;1.05;0.60;;;9.20;99.90;;;;;;5061035;28;20075;-77
2022/12/21 09:12:13;;;;;;;3.08;1.00;;;9.20;99.90;;;;;;5059961;28;20048;-77
2022/12/21 09:14:40;;;;;;;2.35;0.75;;;9.30;99.90;;;;;;5043795;28;20049;-77
2022/12/21 09:17:06;;;;;;;1.08;0.60;;;9.30;99.90;;;;;;5044253;28;20049;-76
2022/12/21 09:19:33;;;;;;;2.55;1.23;;;9.30;99.90;;;;;;5043287;28;20737;-76
2022/12/21 09:22:00;;;;;;;1.85;0.77;;;9.30;99.90;;;;;;5027051;28;20048;-76
2022/12/21 09:24:27;;;;;;;1.27;0.73;;;9.40;99.90;;;;;;5061066;28;20075;-76
2022/12/21 09:26:54;;;;;;;2.30;1.20;;;9.40;99.90;;;;;;5039819;28;20131;-76
2022/12/21 09:29:23;;;;;;;1.90;1.20;;;9.40;99.90;;;;;;5071627;28;20121;-76
2022/12/21 09:31:50;;;;;;;2.75;0.90;;;9.50;99.90;;;;;;5060325;28;20055;-76
2022/12/21 09:34:18;;;;;;;2.42;0.95;;;9.50;99.90;;;;;;5060722;28;20129;-78
2022/12/21 09:36:45;;;;;;;1.88;0.80;;;9.50;99.90;;;;;;5060356;28;20041;-76
2022/12/21 09:39:31;;;;;;;4.28;1.50;;;9.60;99.90;;;;;;5060364;28;20052;-76
2022/12/21 09:42:05;;;;;;;3.80;1.20;;;9.60;99.90;;;;;;5060140;28;20045;-77
2022/12/21 09:44:42;;;;;;;;;;;9.70;99.90;;;;;;5060342;28;20223;-76
2022/12/21 09:47:19;;;;;;;1.70;0.90;;;9.70;99.90;;;;;;5042988;28;19924;-76
2022/12/21 09:49:59;;;;;;;3.42;0.70;;;9.80;99.90;;;;;;5042550;28;20048;-76
2022/12/21 09:52:42;;;;;;;1.83;0.70;;;9.80;99.90;;;;;;5060064;28;20130;-76
2022/12/21 09:55:15;;;;;;;1.35;0.70;;;9.80;99.90;;;;;;5022996;28;20622;-76
2022/12/21 09:57:42;;;;;;;;;;;9.90;99.90;;;;;;5056744;28;20408;-76
2022/12/21 10:00:22;;;;;;;1.52;0.50;;;9.90;99.90;;;;;;5043302;28;20051;-76
2022/12/21 10:03:06;;;;;;;1.83;0.98;;;10.00;99.90;;;;;;5058992;28;20048;-76
2022/12/21 10:05:39;;;;;;;1.60;0.70;;;10.10;99.90;;;;;;5048926;28;21022;-76
2022/12/21 10:08:29;;;;;;;3.20;1.27;;;10.10;99.90;;;;;;5069950;28;20052;-75
2022/12/21 10:11:10;;;;;;;2.45;0.73;;;10.10;99.90;;;;;;5057542;28;20044;-76
2022/12/21 10:14:01;;;;;;;1.45;0.60;;;10.20;99.90;;;;;;5054374;28;20063;-77
2022/12/21 10:16:31;;;;;;;3.40;0.90;;;10.20;99.90;;;;;;5066307;28;20087;-77
2022/12/21 10:19:42;;;;;;;3.42;0.80;;;10.20;99.90;;;;;;5052929;28;20364;-77
2022/12/21 10:22:40;;;;;;;3.67;0.90;;;10.30;99.90;;;;;;5072306;28;20384;-76
2022/12/21 10:25:24;;;;;;;2.25;0.80;;;10.30;99.90;;;;;;5060561;28;20535;-76
2022/12/21 10:28:00;;;;;;;1.77;0.60;;;10.30;99.90;;;;;;5064401;28;20048;-76
2022/12/21 10:30:28;;;;;;;2.45;1.35;;;10.30;99.90;;;;;;5058304;28;20053;-75
2022/12/21 10:32:54;;;;;;;1.27;0.68;;;10.30;99.90;;;;;;5050975;28;20052;-75
2022/12/21 10:35:37;;;;;;;0.57;0.57;;;10.40;99.90;;;;;;5044598;28;20044;-75
2022/12/21 10:38:13;;;;;;;2.30;1.02;;;10.40;99.90;;;;;;5032745;28;20052;-75
2022/12/21 10:40:41;;;;;;;1.15;0.50;;;10.40;99.90;;;;;;5059033;28;20037;-75
2022/12/21 10:43:09;;;;;;;1.50;0.85;;;10.40;99.90;;;;;;5048853;28;20558;-75
2022/12/21 10:45:36;;;;;;;2.55;0.82;;;10.50;99.90;;;;;;5052379;28;20143;-75
2022/12/21 10:48:03;;;;;;;1.42;0.70;;;10.60;99.90;;;;;;5055665;28;20568;-75
2022/12/21 10:50:34;;;;;;;1.95;0.90;;;10.60;99.90;;;;;;5041869;28;20106;-75
2022/12/21 10:53:21;;;;;;;1.65;0.75;;;10.60;99.90;;;;;;5053955;28;20431;-76
2022/12/21 10:55:47;;;;;;;0.80;0.60;;;10.70;99.90;;;;;;5053468;28;20170;-81
2022/12/21 10:58:23;;;;;;;1.17;0.68;;;10.80;99.90;;;;;;5056177;28;20049;-76
2022/12/21 11:01:01;;;;;;;1.75;0.63;;;10.90;99.90;;;;;;5054691;28;20051;-75
2022/12/21 11:03:36;;;;;;;3.53;1.25;;;10.90;99.90;;;;;;5055910;28;20048;-76
2022/12/21 11:06:11;;;;;;;2.08;0.60;;;11.00;99.90;;;;;;5045698;28;20135;-76
2022/12/21 11:08:52;;;;;;;2.10;0.93;;;11.00;99.90;;;;;;5059306;28;20129;-76
2022/12/21 11:11:31;;;;;;;1.88;0.80;;;11.00;99.90;;;;;;5056823;28;20431;-76
2022/12/21 11:14:02;;;;;;;2.05;0.70;;;11.10;99.90;;;;;;5061891;28;20460;-76
2022/12/21 11:16:34;;;;;;;1.73;0.68;;;11.10;99.90;;;;;;5058088;28;20068;-76
2022/12/21 11:19:01;;;;;;;1.65;0.60;;;11.10;99.90;;;;;;5038905;28;20127;-76
2022/12/21 11:21:45;;;;;;;3.05;1.27;;;11.20;99.90;;;;;;5023022;28;20063;-76
2022/12/21 11:24:13;;;;;;;2.00;0.80;;;11.20;99.90;;;;;;5047249;28;20044;-76
2022/12/21 11:26:45;;;;;;;2.47;0.90;;;11.30;99.90;;;;;;5046582;28;20110;-77
2022/12/21 11:29:42;;;;;;;2.28;0.80;;;11.40;99.90;;;;;;5034171;28;20078;-76
2022/12/21 11:32:10;;;;;;;3.80;1.13;;;11.40;99.90;;;;;;5054894;28;20278;-76
2022/12/21 11:34:56;;;;;;;3.10;1.05;;;11.40;99.90;;;;;;5039781;28;20584;-76
2022/12/21 11:37:35;;;;;;;0.63;0.45;;;11.40;99.90;;;;;;5055139;28;20049;-76
2022/12/21 11:40:11;;;;;;;2.53;0.70;;;11.40;99.90;;;;;;5056000;28;20115;-77
2022/12/21 11:43:00;;;;;;;1.33;0.75;;;11.40;99.90;;;;;;5055247;28;20056;-76
2022/12/21 11:45:54;;;;;;;1.45;0.65;;;11.40;99.90;;;;;;5061014;28;20052;-75
2022/12/21 11:48:49;;;;;;;1.95;0.90;;;11.40;99.90;;;;;;5047753;28;20051;-76
2022/12/21 11:51:37;;;;;;;0.93;0.43;;;11.50;99.90;;;;;;5075794;27;20402;-77
2022/12/21 11:54:32;;;;;;;1.38;0.50;;;11.50;99.90;;;;;;5058122;28;20128;-77
2022/12/21 11:57:18;;;;;;;1.33;0.57;;;11.50;99.90;;;;;;5083558;28;20049;-77
2022/12/21 12:00:08;;;;;;;1.33;0.77;;;11.60;99.90;;;;;;5053869;28;20051;-76
2022/12/21 12:03:06;;;;;;;1.20;0.60;;;11.60;99.90;;;;;;5063001;28;21448;-76
2022/12/21 12:05:37;;;;;;;1.15;0.50;;;11.60;99.90;;;;;;5034793;28;20470;-76
2022/12/21 12:08:10;;;;;;;0.38;0.38;;;11.60;99.90;;;;;;5042092;28;20088;-76
2022/12/21 12:11:08;;;;;;;1.05;0.55;;;11.60;99.90;;;;;;5086386;28;20061;-75
2022/12/21 12:13:49;;;;;;;0.22;0.22;;;11.60;99.90;;;;;;5052086;28;20101;-76
2022/12/21 12:16:51;;;;;;;0.47;0.30;;;11.50;99.90;;;;;;5058064;28;20116;-75
2022/12/21 12:19:40;;;;;;;0.88;0.40;;;11.50;99.90;;;;;;5064002;28;20151;-76
2022/12/21 12:22:43;;;;;;;0.40;0.30;;;11.40;99.90;;;;;;5039358;28;20675;-78
2022/12/21 12:25:33;;;;;;;0.52;0.40;;;11.40;99.90;;;;;;5029305;28;20049;-78
2022/12/21 12:28:15;;;;;;;0.63;0.38;;;11.30;99.90;;;;;;5078873;28;20162;-77
2022/12/21 12:31:07;;;;;;;1.05;0.40;;;11.30;99.90;;;;;;5072096;28;20044;-78
2022/12/21 12:33:48;;;;;;;0.20;0.20;;;11.20;99.90;;;;;;5067291;28;20055;-78
2022/12/21 12:37:04;;;;;;;0.30;0.30;;;11.20;99.90;;;;;;5066926;28;20072;-78
2022/12/21 12:40:20;;;;;;;0.43;0.30;;;11.20;99.90;;;;;;5053329;28;20099;-77
2022/12/21 12:42:58;;;;;;;0.20;0.20;;;11.20;99.90;;;;;;5040079;28;20390;-78
2022/12/21 12:45:28;;;;;;;0.57;0.57;;;11.10;99.90;;;;;;5072417;28;20154;-78
2022/12/21 12:48:20;;;;;;;0.38;0.38;;;11.00;99.90;;;;;;5065571;28;20056;-78
2022/12/21 12:51:00;;;;;;;0.77;0.40;;;11.00;99.90;;;;;;5064986;28;20056;-77
2022/12/21 12:53:30;;;;;;;0.32;0.30;;;11.00;99.90;;;;;;5053629;28;20054;-78
2022/12/21 12:56:16;;;;;;;0.88;0.50;;;11.00;99.90;;;;;;5070561;28;20542;-78
2022/12/21 12:59:21;;;;;;;0.30;0.30;;;11.00;99.90;;;;;;5068577;28;20838;-77
2022/12/21 13:01:55;;;;;;;0.60;0.30;;;11.00;99.90;;;;;;5053711;28;20045;-79
2022/12/21 13:04:31;;;;;;;0.85;0.40;;;10.80;99.90;;;;;;5038927;28;20056;-78
2022/12/21 13:07:17;;;;;;;0.68;0.40;;;10.60;99.90;;;;;;5058145;28;20047;-79
2022/12/21 13:10:07;;;;;;;0.68;0.30;;;10.40;99.90;;;;;;5059114;28;20048;-78
2022/12/21 13:12:50;;;;;;;0.77;0.40;;;10.30;99.90;;;;;;5052834;28;20350;-88
2022/12/21 13:15:34;;;;;;;0.50;0.30;;;10.30;99.90;;;;;;5059815;28;20087;-84
2022/12/21 13:18:02;;;;;;;0.68;0.30;;;10.20;99.90;;;;;;5049774;28;20079;-83
2022/12/21 13:20:29;;;;;;;1.23;0.50;;;10.10;99.90;;;;;;5033038;28;20128;-83
2022/12/21 13:23:04;;;;;;;0.30;0.30;;;10.10;99.90;;;;;;5042452;28;20427;-84
2022/12/21 13:26:03;;;;;;;0.68;0.50;;;10.10;99.90;;;;;;5039693;28;20053;-83
2022/12/21 13:28:44;;;;;;;0.60;0.50;;;10.20;99.90;;;;;;5037677;28;20449;-84
2022/12/21 13:31:11;;;;;;;0.30;0.30;;;10.20;99.90;;;;;;5055277;28;20477;-83
2022/12/21 13:33:47;;;;;;;0.30;0.30;;;10.20;99.90;;;;;;5051341;28;20044;-82
2022/12/21 13:36:14;;;;;;;1.05;0.50;;;10.30;99.90;;;;;;5041225;28;20139;-83
2022/12/21 13:38:44;;;;;;;0.38;0.38;;;10.30;99.90;;;;;;5019061;28;20104;-86
2022/12/21 13:41:28;;;;;;;0.30;0.30;;;10.30;99.90;;;;;;5049731;28;20295;-85
2022/12/21 13:44:01;;;;;;;0.65;0.47;;;10.40;99.90;;;;;;5023783;28;20372;-85